Terminal Aerodrome Forecast
Issued by NWS Tuscon, AZ

Home | Current Version | Previous Version | Text Only | Print | Product List | Glossary On
Versions: 1 2 3 4 5 6 7 8 9 10 11 12 13 14 15
000
FTUS45 KTWC 231740
TAFTUS
TAF
KTUS 231740Z 2318/2418 VRB04KT P6SM SCT140 BKN200
     FM232100 18008KT P6SM VCTS SCT070CB BKN120
      TEMPO 2322/2324 VRB20G35KT 5SM -TSRA BKN050CB
     FM240100 17009G17KT P6SM SCT080 BKN130
     FM240400 14008KT P6SM SCT140 BKN200=

USA.gov is the U.S. government's official web portal to all federal, state and local government web resources and services.